Main page
METAR-TAF:

METAR-TAF

Airports :

Gwadar International Airport

Gwadar, Pakistan

latitude: 25-13-59N, longitude: 062-19-46E, elevation: 29 m

METAR: missing

Time: 08:52 (03:52 UTC)

Forecast

The report was made 6 hours and 22 minutes ago, at 21:30 UTC
Forecast valid from 01 at 00 UTC to 01 at 24 UTC
Wind 8 kt from the North/Northwest
Visibility: 4000 m
haze
Temporary
from 01 at 00 UTC to 01 at 04 UTC
Wind 3 kt from variable directions
Visibility: 1500 m
mist
Becoming
from 01 at 15 UTC to 01 at 17 UTC
Wind 12 kt from the North/Northwest
Visibility: 4000 m
haze
From 01 at 1700 UTC
Wind 4 kt from the Northwest
Visibility: 3000 m
smoke

TAF: OPGD 282130Z 0100/0124 33008KT 4000 HZ NSC TEMPO 0100/0104 VRB03KT 1500 BR NSC BECMG 0115/0117 33012KT 4000 HZ NSC FM011700 31004KT 3000 FU NSC

Weather observations and forecasts of more than 4000 airports (METAR and TAF reports).

The available stations are represented by yellow and red dots on the map.

Hover mouse over dot to see the name of the station.

Then click to see weather observations and forecasts.

To change the map : click on the green buttons with a black cross to zoom in, on the green button with a dash to zoom out, or on the green arrows for adjacent maps.


METAR-TAF: